Time;durP1;ratioP1;P1;durP2;ratioP2;P2;SDS_P1;SDS_P2;PMS_P1;PMS_P2;Temp;Humidity;BMP_temperature;BMP_pressure;BME280_temperature;BME280_humidity;BME280_pressure;Samples;Min_cycle;Max_cycle;Signal;HPM_P1;HPM_P2
2022/01/18 00:01:59;;;;;;;21.20;10.90;;;;;;;;;;5030216;28;20229;-77
2022/01/18 00:04:24;;;;;;;20.37;10.07;;;;;;;;;;5033712;28;20182;-77
2022/01/18 00:06:52;;;;;;;20.23;10.57;;;;;;;;;;5049647;28;20301;-77
2022/01/18 00:09:22;;;;;;;19.40;9.83;;;;;;;;;;5027333;28;20304;-77
2022/01/18 00:11:58;;;;;;;18.57;11.13;;;;;;;;;;5021975;28;20206;-77
2022/01/18 00:14:27;;;;;;;20.20;10.83;;;;;;;;;;5040900;28;20180;-77
2022/01/18 00:17:06;;;;;;;20.20;9.77;;;;;;;;;;5044716;28;20219;-77
2022/01/18 00:19:33;;;;;;;19.63;9.00;;;;;;;;;;5054353;28;20197;-77
2022/01/18 00:24:27;;;;;;;18.90;10.60;;;;;;;;;;5049688;28;20190;-77
2022/01/18 00:26:52;;;;;;;23.63;11.10;;;;;;;;;;5031675;28;20189;-77
2022/01/18 00:29:20;;;;;;;17.97;9.00;;;;;;;;;;5027566;28;20375;-77
2022/01/18 00:34:33;;;;;;;19.73;9.43;;;;;;;;;;5047246;28;20260;-77
2022/01/18 00:39:24;;;;;;;14.83;9.67;;;;;;;;;;5048970;28;20186;-77
2022/01/18 00:41:49;;;;;;;15.90;9.00;;;;;;;;;;5034277;28;20277;-77
2022/01/18 00:44:15;;;;;;;18.73;10.43;;;;;;;;;;5030117;28;20277;-77
2022/01/18 00:46:40;;;;;;;21.47;10.87;;;;;;;;;;5042963;28;20174;-77
2022/01/18 00:49:06;;;;;;;20.77;9.77;;;;;;;;;;5047777;28;20223;-77
2022/01/18 00:51:35;;;;;;;20.67;10.50;;;;;;;;;;5040639;28;20195;-77
2022/01/18 00:54:01;;;;;;;23.90;10.73;;;;;;;;;;5032881;28;20436;-77
2022/01/18 00:56:29;;;;;;;20.17;9.00;;;;;;;;;;5049068;28;20269;-77
2022/01/18 00:58:55;;;;;;;22.83;10.77;;;;;;;;;;5032035;28;20190;-77
2022/01/18 01:01:22;;;;;;;27.63;11.80;;;;;;;;;;5049160;28;20190;-77
2022/01/18 01:03:48;;;;;;;27.07;11.77;;;;;;;;;;5042289;28;20190;-77
2022/01/18 01:06:13;;;;;;;23.33;10.73;;;;;;;;;;5050931;28;20229;-77
2022/01/18 01:08:39;;;;;;;21.03;10.53;;;;;;;;;;5051454;28;20178;-77
2022/01/18 01:11:05;;;;;;;20.77;11.60;;;;;;;;;;5034917;28;20210;-77
2022/01/18 01:13:31;;;;;;;22.30;9.97;;;;;;;;;;5050047;28;20174;-77
2022/01/18 01:18:42;;;;;;;30.23;13.13;;;;;;;;;;5052064;28;20186;-77
2022/01/18 01:35:15;;;;;;;26.00;13.10;;;;;;;;;;4970706;28;20219;-77
2022/01/18 01:43:23;;;;;;;19.00;8.30;;;;;;;;;;4971333;28;20200;-77
2022/01/18 01:45:50;;;;;;;19.77;9.33;;;;;;;;;;4956416;28;21247;-77
2022/01/18 01:48:17;;;;;;;25.80;11.37;;;;;;;;;;4973039;28;20183;-77
2022/01/18 01:50:49;;;;;;;22.37;10.57;;;;;;;;;;4971358;28;20240;-77
2022/01/18 01:53:16;;;;;;;18.60;9.53;;;;;;;;;;4971490;28;20181;-77
2022/01/18 01:55:42;;;;;;;21.70;11.23;;;;;;;;;;4971609;28;20192;-77
2022/01/18 01:58:07;;;;;;;37.77;13.57;;;;;;;;;;4970474;28;20301;-77
2022/01/18 02:00:33;;;;;;;33.57;13.87;;;;;;;;;;4954311;28;20191;-77
2022/01/18 02:02:58;;;;;;;27.90;12.50;;;;;;;;;;4969643;28;20189;-77
2022/01/18 02:05:23;;;;;;;25.07;12.13;;;;;;;;;;4967745;28;20195;-77
2022/01/18 02:07:50;;;;;;;32.93;14.43;;;;;;;;;;4956912;28;20227;-77
2022/01/18 02:10:16;;;;;;;25.87;11.67;;;;;;;;;;5029074;28;20187;-77
2022/01/18 02:12:41;;;;;;;25.73;12.53;;;;;;;;;;5030312;28;20181;-77
2022/01/18 02:15:18;;;;;;;26.23;11.20;;;;;;;;;;5013031;28;20190;-77
2022/01/18 02:23:15;;;;;;;28.57;11.43;;;;;;;;;;5028528;28;20181;-77
2022/01/18 02:25:41;;;;;;;28.97;12.30;;;;;;;;;;5008491;28;20192;-77
2022/01/18 02:28:06;;;;;;;32.07;12.80;;;;;;;;;;5025585;28;20207;-77
2022/01/18 02:30:31;;;;;;;36.83;14.10;;;;;;;;;;5013129;28;20198;-77
2022/01/18 02:32:57;;;;;;;38.20;14.57;;;;;;;;;;5003228;28;20198;-77
2022/01/18 02:35:22;;;;;;;36.43;14.10;;;;;;;;;;5028848;28;20262;-77
2022/01/18 02:37:51;;;;;;;33.17;13.90;;;;;;;;;;5008261;28;20187;-77
2022/01/18 02:40:16;;;;;;;33.97;14.67;;;;;;;;;;5011711;28;20179;-77
2022/01/18 02:42:45;;;;;;;32.83;14.60;;;;;;;;;;5009417;28;20183;-77
2022/01/18 02:45:10;;;;;;;31.80;13.53;;;;;;;;;;5007234;28;20189;-77
2022/01/18 02:47:35;;;;;;;39.17;14.70;;;;;;;;;;5007579;28;20176;-77
2022/01/18 02:50:00;;;;;;;35.13;16.63;;;;;;;;;;5009796;28;20265;-77
2022/01/18 02:52:25;;;;;;;27.10;14.07;;;;;;;;;;5029150;28;20285;-77
2022/01/18 02:54:51;;;;;;;32.60;14.63;;;;;;;;;;5027229;28;20179;-77
2022/01/18 02:57:25;;;;;;;28.77;12.80;;;;;;;;;;5010034;28;20179;-77
2022/01/18 03:00:06;;;;;;;32.37;14.03;;;;;;;;;;5028184;28;20213;-77
2022/01/18 03:05:15;;;;;;;36.10;15.73;;;;;;;;;;5025157;28;20241;-77
2022/01/18 03:07:41;;;;;;;33.30;14.23;;;;;;;;;;5025383;28;20206;-77
2022/01/18 03:10:07;;;;;;;35.07;14.23;;;;;;;;;;5029434;28;20217;-77
2022/01/18 03:12:32;;;;;;;35.03;13.90;;;;;;;;;;5026262;28;20206;-77
2022/01/18 03:14:58;;;;;;;40.27;14.83;;;;;;;;;;5034240;28;20181;-77
2022/01/18 03:17:23;;;;;;;41.40;16.03;;;;;;;;;;5045520;28;20175;-77
2022/01/18 03:19:48;;;;;;;37.57;17.27;;;;;;;;;;5041524;28;20208;-76
2022/01/18 03:22:13;;;;;;;34.20;13.70;;;;;;;;;;5024327;28;20623;-77
2022/01/18 03:24:52;;;;;;;41.50;16.63;;;;;;;;;;5028259;28;20205;-77
2022/01/18 03:30:03;;;;;;;40.33;15.93;;;;;;;;;;5047459;28;20304;-77
2022/01/18 03:32:28;;;;;;;41.20;17.37;;;;;;;;;;5027613;28;20202;-77
2022/01/18 03:34:53;;;;;;;41.30;14.63;;;;;;;;;;5030957;28;20209;-77
2022/01/18 03:37:19;;;;;;;46.17;15.93;;;;;;;;;;5041907;28;20166;-77
2022/01/18 03:39:44;;;;;;;45.70;16.33;;;;;;;;;;5048084;28;20273;-77
2022/01/18 03:44:45;;;;;;;30.03;13.23;;;;;;;;;;5039334;28;20182;-77
2022/01/18 03:47:12;;;;;;;30.53;12.73;;;;;;;;;;5045150;28;20186;-77
2022/01/18 03:49:37;;;;;;;33.90;13.50;;;;;;;;;;5025526;28;20174;-77
2022/01/18 03:52:03;;;;;;;36.07;13.60;;;;;;;;;;5029835;28;20209;-77
2022/01/18 03:54:28;;;;;;;29.27;12.97;;;;;;;;;;5044343;28;20182;-77
2022/01/18 03:56:53;;;;;;;41.60;14.53;;;;;;;;;;5025859;28;20178;-77
2022/01/18 03:59:18;;;;;;;33.50;13.27;;;;;;;;;;5025383;28;20532;-77
2022/01/18 04:01:43;;;;;;;37.00;15.17;;;;;;;;;;5032811;28;20191;-77
2022/01/18 04:04:08;;;;;;;32.83;13.43;;;;;;;;;;5047225;28;20170;-76
2022/01/18 04:06:34;;;;;;;30.93;13.23;;;;;;;;;;5018706;28;20260;-77
2022/01/18 04:08:59;;;;;;;33.10;15.20;;;;;;;;;;5008066;28;20246;-77
2022/01/18 04:11:24;;;;;;;41.50;13.20;;;;;;;;;;5035947;28;20214;-77
2022/01/18 04:13:49;;;;;;;39.03;14.27;;;;;;;;;;5013880;28;20209;-77
2022/01/18 04:16:15;;;;;;;31.47;12.93;;;;;;;;;;5012876;28;20186;-76
2022/01/18 04:26:56;;;;;;;37.10;14.53;;;;;;;;;;4977288;28;20235;-77
2022/01/18 04:29:22;;;;;;;37.17;15.47;;;;;;;;;;5033457;28;20178;-77
2022/01/18 04:31:47;;;;;;;46.53;18.57;;;;;;;;;;5028934;28;20233;-77
2022/01/18 04:34:12;;;;;;;41.37;14.17;;;;;;;;;;5030899;28;20277;-77
2022/01/18 04:36:37;;;;;;;44.17;15.40;;;;;;;;;;5010748;28;20175;-77
2022/01/18 04:39:03;;;;;;;44.73;16.47;;;;;;;;;;5010773;28;20179;-76
2022/01/18 04:41:30;;;;;;;48.13;17.90;;;;;;;;;;5035176;28;20171;-77
2022/01/18 04:49:08;;;;;;;38.77;14.53;;;;;;;;;;5031853;28;20225;-77
2022/01/18 04:51:34;;;;;;;32.97;14.53;;;;;;;;;;5036392;28;20225;-77
2022/01/18 04:54:01;;;;;;;31.67;14.23;;;;;;;;;;5017365;28;20233;-77
2022/01/18 04:57:51;;;;;;;33.50;15.20;;;;;;;;;;5029262;28;20183;-77
2022/01/18 04:59:13;;;;;;;42.00;17.07;;;;;;;;;;5030299;28;20178;-76
2022/01/18 05:01:39;;;;;;;38.00;14.07;;;;;;;;;;5008745;28;20183;-76
2022/01/18 05:04:05;;;;;;;42.33;15.10;;;;;;;;;;5013822;28;20179;-76
2022/01/18 05:06:30;;;;;;;31.73;13.33;;;;;;;;;;5022035;28;20221;-76
2022/01/18 05:08:56;;;;;;;40.93;16.20;;;;;;;;;;5031133;28;20186;-76
2022/01/18 05:11:24;;;;;;;45.50;14.43;;;;;;;;;;5050356;28;20202;-76
2022/01/18 05:14:15;;;;;;;41.53;15.57;;;;;;;;;;5032932;28;20195;-77
2022/01/18 05:16:49;;;;;;;47.40;17.40;;;;;;;;;;5049335;28;20178;-76
2022/01/18 05:24:18;;;;;;;43.30;14.17;;;;;;;;;;5050058;28;20387;-77
2022/01/18 05:26:43;;;;;;;49.83;17.17;;;;;;;;;;5050004;28;20265;-77
2022/01/18 05:29:08;;;;;;;44.30;15.87;;;;;;;;;;5034722;28;20456;-77
2022/01/18 05:31:34;;;;;;;55.90;22.47;;;;;;;;;;5037717;28;20205;-76
2022/01/18 05:33:59;;;;;;;45.20;17.10;;;;;;;;;;5032469;28;20194;-76
2022/01/18 05:36:24;;;;;;;52.50;17.83;;;;;;;;;;5051197;28;20186;-77
2022/01/18 05:38:49;;;;;;;43.67;16.73;;;;;;;;;;5045470;28;20210;-77
2022/01/18 05:41:15;;;;;;;49.83;19.13;;;;;;;;;;5049168;28;20188;-77
2022/01/18 05:43:40;;;;;;;46.07;16.93;;;;;;;;;;5048200;28;20277;-75
2022/01/18 05:46:05;;;;;;;48.27;17.67;;;;;;;;;;5047408;28;20273;-77
2022/01/18 05:48:30;;;;;;;49.20;17.13;;;;;;;;;;5030350;28;20269;-76
2022/01/18 05:50:59;;;;;;;47.47;17.13;;;;;;;;;;5047642;28;20202;-77
2022/01/18 05:53:28;;;;;;;57.17;20.37;;;;;;;;;;5049100;28;20264;-76
2022/01/18 05:55:53;;;;;;;50.53;18.23;;;;;;;;;;5030859;28;20185;-76
2022/01/18 05:58:19;;;;;;;48.40;17.67;;;;;;;;;;5034052;28;20183;-77
2022/01/18 06:00:50;;;;;;;48.70;18.17;;;;;;;;;;5033562;28;20189;-77
2022/01/18 06:03:18;;;;;;;43.60;17.97;;;;;;;;;;5026729;28;20182;-77
2022/01/18 06:08:29;;;;;;;47.73;17.80;;;;;;;;;;5045858;28;20200;-77
2022/01/18 06:10:54;;;;;;;67.70;30.37;;;;;;;;;;5046390;28;20201;-76
2022/01/18 06:13:21;;;;;;;59.03;30.13;;;;;;;;;;5032314;28;20174;-77
2022/01/18 06:15:46;;;;;;;45.30;21.07;;;;;;;;;;5052160;28;20182;-77
2022/01/18 06:18:12;;;;;;;37.00;15.30;;;;;;;;;;5048723;28;20200;-76
2022/01/18 06:20:40;;;;;;;45.27;16.33;;;;;;;;;;5025493;28;20269;-76
2022/01/18 06:23:05;;;;;;;32.40;14.90;;;;;;;;;;5035447;28;20181;-77
2022/01/18 06:25:30;;;;;;;34.37;16.20;;;;;;;;;;5024180;28;20181;-77
2022/01/18 06:27:55;;;;;;;41.05;17.17;;;;;;;;;;5034677;28;20197;-77
2022/01/18 06:30:21;;;;;;;38.80;15.30;;;;;;;;;;5042644;28;20227;-77
2022/01/18 06:32:46;;;;;;;34.60;14.27;;;;;;;;;;5023847;28;20198;-76
2022/01/18 06:35:12;;;;;;;27.20;13.20;;;;;;;;;;5027739;28;20182;-76
2022/01/18 06:37:38;;;;;;;29.90;13.97;;;;;;;;;;5028094;28;20194;-76
2022/01/18 06:40:04;;;;;;;27.03;13.80;;;;;;;;;;5045309;28;20170;-77
2022/01/18 06:42:30;;;;;;;34.80;13.33;;;;;;;;;;5048871;28;20180;-76
2022/01/18 06:44:55;;;;;;;27.20;11.47;;;;;;;;;;5031612;28;20186;-76
2022/01/18 06:47:20;;;;;;;24.90;11.03;;;;;;;;;;5046594;28;20216;-77
2022/01/18 06:49:45;;;;;;;21.57;10.37;;;;;;;;;;5028822;28;20202;-76
2022/01/18 06:52:12;;;;;;;27.67;11.70;;;;;;;;;;5031364;28;20312;-77
2022/01/18 06:54:37;;;;;;;25.03;11.50;;;;;;;;;;5030265;28;20278;-76
2022/01/18 06:57:02;;;;;;;23.70;11.13;;;;;;;;;;5045184;28;20170;-76
2022/01/18 06:59:28;;;;;;;22.90;10.33;;;;;;;;;;5045754;28;20312;-77
2022/01/18 07:01:53;;;;;;;20.67;10.70;;;;;;;;;;5031786;28;20186;-77
2022/01/18 07:04:18;;;;;;;25.77;11.17;;;;;;;;;;5028308;28;20245;-76
2022/01/18 07:06:45;;;;;;;26.20;11.40;;;;;;;;;;5025941;28;20221;-76
2022/01/18 07:09:10;;;;;;;21.70;10.70;;;;;;;;;;5048083;28;20181;-76
2022/01/18 07:11:36;;;;;;;25.23;10.33;;;;;;;;;;5024602;28;20233;-76
2022/01/18 07:14:01;;;;;;;24.63;10.77;;;;;;;;;;5029032;28;20252;-76
2022/01/18 07:16:26;;;;;;;18.87;11.13;;;;;;;;;;5026371;28;20265;-77
2022/01/18 07:18:51;;;;;;;18.33;9.87;;;;;;;;;;5037606;28;20178;-76
2022/01/18 07:21:16;;;;;;;29.70;11.47;;;;;;;;;;5040464;28;20185;-76
2022/01/18 07:23:42;;;;;;;18.80;9.83;;;;;;;;;;5028117;28;20233;-76
2022/01/18 07:26:07;;;;;;;19.87;9.03;;;;;;;;;;5021422;28;20175;-76
2022/01/18 07:28:32;;;;;;;21.63;9.80;;;;;;;;;;5044837;28;20186;-76
2022/01/18 07:30:57;;;;;;;19.43;9.40;;;;;;;;;;5027483;28;20194;-76
2022/01/18 07:33:23;;;;;;;17.90;9.30;;;;;;;;;;5039030;28;20198;-76
2022/01/18 07:35:48;;;;;;;20.23;11.23;;;;;;;;;;5048870;28;20177;-76
2022/01/18 07:38:16;;;;;;;19.47;9.23;;;;;;;;;;5052432;28;20178;-77
2022/01/18 07:40:42;;;;;;;18.60;8.50;;;;;;;;;;5030324;28;20186;-77
2022/01/18 07:43:08;;;;;;;24.07;10.03;;;;;;;;;;5034601;28;20177;-77
2022/01/18 07:45:33;;;;;;;23.40;9.03;;;;;;;;;;5035009;28;20182;-77
2022/01/18 07:47:59;;;;;;;24.13;10.03;;;;;;;;;;5033143;28;20268;-76
2022/01/18 07:50:24;;;;;;;21.23;9.17;;;;;;;;;;5028712;28;20181;-77
2022/01/18 07:52:50;;;;;;;24.13;10.80;;;;;;;;;;5034776;28;20180;-76
2022/01/18 07:55:15;;;;;;;23.27;11.27;;;;;;;;;;5050712;28;20174;-76
2022/01/18 07:57:43;;;;;;;20.70;9.83;;;;;;;;;;5032884;28;20177;-76
2022/01/18 08:00:09;;;;;;;23.03;10.13;;;;;;;;;;5035339;28;20237;-76
2022/01/18 08:02:36;;;;;;;23.50;10.80;;;;;;;;;;5046290;28;20185;-76
2022/01/18 08:05:02;;;;;;;22.63;9.77;;;;;;;;;;5050881;28;20186;-76
2022/01/18 08:07:27;;;;;;;25.47;11.70;;;;;;;;;;5047928;28;20225;-76
2022/01/18 08:09:52;;;;;;;27.17;10.73;;;;;;;;;;5030517;28;20209;-76
2022/01/18 08:12:17;;;;;;;23.53;11.53;;;;;;;;;;5033405;28;20420;-76
2022/01/18 08:14:46;;;;;;;24.70;10.50;;;;;;;;;;5035953;28;20170;-76
2022/01/18 08:17:11;;;;;;;23.47;10.57;;;;;;;;;;5032613;28;20170;-76
2022/01/18 08:19:36;;;;;;;21.97;11.50;;;;;;;;;;5036116;28;20174;-76
2022/01/18 08:22:03;;;;;;;21.87;10.33;;;;;;;;;;5027522;28;20178;-76
2022/01/18 08:24:28;;;;;;;20.37;9.27;;;;;;;;;;5048294;28;20270;-76
2022/01/18 08:26:55;;;;;;;21.13;9.67;;;;;;;;;;5059092;28;20205;-76
2022/01/18 08:29:20;;;;;;;25.33;13.40;;;;;;;;;;5034903;28;20251;-76
2022/01/18 08:31:46;;;;;;;23.03;10.97;;;;;;;;;;5051982;28;20278;-76
2022/01/18 08:34:12;;;;;;;27.80;10.93;;;;;;;;;;5034577;28;20197;-76
2022/01/18 08:36:37;;;;;;;25.40;12.63;;;;;;;;;;5026692;28;20174;-76
2022/01/18 08:39:04;;;;;;;28.93;13.63;;;;;;;;;;5052084;28;20177;-76
2022/01/18 08:41:29;;;;;;;23.20;11.60;;;;;;;;;;5044914;28;20202;-76
2022/01/18 08:43:54;;;;;;;24.80;11.67;;;;;;;;;;5034741;28;20236;-76
2022/01/18 08:46:20;;;;;;;26.23;12.20;;;;;;;;;;5037295;28;20180;-76
2022/01/18 08:48:46;;;;;;;24.77;17.13;;;;;;;;;;5041363;28;20193;-77
2022/01/18 08:51:11;;;;;;;29.60;12.90;;;;;;;;;;5030575;28;20265;-76
2022/01/18 08:53:37;;;;;;;24.93;12.43;;;;;;;;;;5034167;28;20172;-76
2022/01/18 08:56:02;;;;;;;20.50;11.20;;;;;;;;;;5031615;28;20178;-76
2022/01/18 08:58:28;;;;;;;28.17;13.20;;;;;;;;;;5031331;28;20428;-76
2022/01/18 09:00:53;;;;;;;22.17;9.93;;;;;;;;;;5047516;28;20178;-76
2022/01/18 09:03:20;;;;;;;20.10;11.23;;;;;;;;;;5031088;28;20193;-76
2022/01/18 09:05:45;;;;;;;27.80;12.70;;;;;;;;;;5025203;28;20217;-76
2022/01/18 09:08:12;;;;;;;22.20;11.33;;;;;;;;;;5029443;28;20189;-76
2022/01/18 09:10:38;;;;;;;20.67;9.60;;;;;;;;;;5035508;28;20263;-76
2022/01/18 09:13:04;;;;;;;21.17;11.93;;;;;;;;;;5028973;28;20189;-76
2022/01/18 09:15:30;;;;;;;21.33;11.90;;;;;;;;;;5031169;28;20174;-76
2022/01/18 09:17:55;;;;;;;19.90;11.23;;;;;;;;;;5033400;28;20316;-76
2022/01/18 09:20:20;;;;;;;17.20;10.20;;;;;;;;;;5031755;28;20178;-76
2022/01/18 09:22:46;;;;;;;26.47;9.17;;;;;;;;;;5029416;28;20278;-76
2022/01/18 09:25:17;;;;;;;18.47;9.67;;;;;;;;;;5033306;28;20181;-76
2022/01/18 09:27:42;;;;;;;23.87;9.63;;;;;;;;;;5029154;28;20190;-76
2022/01/18 09:30:08;;;;;;;19.47;10.00;;;;;;;;;;5030867;28;20254;-76
2022/01/18 09:32:33;;;;;;;13.70;8.77;;;;;;;;;;5028719;28;20218;-76
2022/01/18 09:34:58;;;;;;;16.03;8.80;;;;;;;;;;5031429;28;20217;-76
2022/01/18 09:37:23;;;;;;;20.23;8.00;;;;;;;;;;5023041;28;20214;-76
2022/01/18 09:39:49;;;;;;;21.87;9.63;;;;;;;;;;5050553;28;20186;-76
2022/01/18 09:42:14;;;;;;;14.53;8.40;;;;;;;;;;5032613;28;20182;-76
2022/01/18 09:44:40;;;;;;;22.07;10.27;;;;;;;;;;5030293;28;20182;-76
2022/01/18 09:47:06;;;;;;;14.83;8.70;;;;;;;;;;5027939;28;20178;-76
2022/01/18 09:49:34;;;;;;;16.83;10.47;;;;;;;;;;5033730;28;20170;-76
2022/01/18 09:51:59;;;;;;;18.73;10.13;;;;;;;;;;5048055;28;20274;-76
2022/01/18 09:54:25;;;;;;;15.97;9.37;;;;;;;;;;5029761;28;20194;-77
2022/01/18 09:56:50;;;;;;;21.30;12.63;;;;;;;;;;5023168;28;20177;-76
2022/01/18 09:59:15;;;;;;;22.33;12.07;;;;;;;;;;5029867;28;20178;-76
2022/01/18 10:01:41;;;;;;;22.63;11.60;;;;;;;;;;5047756;28;20267;-76
2022/01/18 10:04:14;;;;;;;14.33;8.73;;;;;;;;;;5028391;28;20190;-76
2022/01/18 10:06:40;;;;;;;18.27;9.50;;;;;;;;;;5048189;28;20245;-76
2022/01/18 10:09:09;;;;;;;16.60;9.30;;;;;;;;;;5031737;28;20252;-76
2022/01/18 10:11:34;;;;;;;13.57;7.97;;;;;;;;;;5047522;28;20207;-76
2022/01/18 10:14:00;;;;;;;15.67;7.83;;;;;;;;;;5043056;28;20178;-76
2022/01/18 10:16:29;;;;;;;16.20;8.40;;;;;;;;;;5026282;28;20186;-78
2022/01/18 10:19:01;;;;;;;11.93;7.03;;;;;;;;;;5046628;28;20188;-78
2022/01/18 10:21:29;;;;;;;12.50;6.63;;;;;;;;;;5029362;28;20183;-78
2022/01/18 10:24:10;;;;;;;12.07;6.80;;;;;;;;;;5031962;28;20194;-78
2022/01/18 10:26:38;;;;;;;11.10;5.63;;;;;;;;;;5029445;28;20178;-78
2022/01/18 10:29:05;;;;;;;12.77;6.30;;;;;;;;;;5025775;28;20178;-78
2022/01/18 10:31:40;;;;;;;7.63;5.23;;;;;;;;;;5028435;28;20317;-78
2022/01/18 10:34:12;;;;;;;10.67;5.87;;;;;;;;;;5049319;28;20203;-78
2022/01/18 10:36:58;;;;;;;12.80;5.53;;;;;;;;;;5030578;28;20284;-78
2022/01/18 10:39:25;;;;;;;9.47;4.53;;;;;;;;;;5047042;28;20174;-78
2022/01/18 10:41:50;;;;;;;10.67;5.00;;;;;;;;;;5027748;28;20233;-78
2022/01/18 10:44:16;;;;;;;10.87;5.07;;;;;;;;;;5047310;28;20182;-78
2022/01/18 10:46:49;;;;;;;10.43;5.37;;;;;;;;;;5027507;28;20178;-78
2022/01/18 10:49:25;;;;;;;10.13;5.00;;;;;;;;;;5030440;28;20301;-80
2022/01/18 10:51:55;;;;;;;13.93;5.83;;;;;;;;;;5027496;28;20206;-80
2022/01/18 10:54:20;;;;;;;7.73;4.83;;;;;;;;;;5024191;28;20169;-80
2022/01/18 10:56:49;;;;;;;5.47;3.73;;;;;;;;;;5048081;28;20174;-80
2022/01/18 10:59:21;;;;;;;10.67;6.27;;;;;;;;;;5040700;28;20177;-80
2022/01/18 11:02:02;;;;;;;10.93;5.23;;;;;;;;;;5029033;28;20170;-78
2022/01/18 11:04:28;;;;;;;8.43;4.80;;;;;;;;;;5023276;28;20202;-80
2022/01/18 11:06:57;;;;;;;7.47;4.30;;;;;;;;;;5010275;28;20251;-80
2022/01/18 11:09:22;;;;;;;5.03;3.03;;;;;;;;;;5012725;28;20190;-80
2022/01/18 11:11:48;;;;;;;8.63;5.20;;;;;;;;;;5005566;28;20203;-80
2022/01/18 11:14:14;;;;;;;6.43;3.63;;;;;;;;;;5012649;28;20175;-80
2022/01/18 11:16:44;;;;;;;3.73;1.77;;;;;;;;;;5024593;28;20235;-80
2022/01/18 11:19:26;;;;;;;7.00;3.83;;;;;;;;;;5013171;28;20212;-79
2022/01/18 11:21:54;;;;;;;3.27;2.40;;;;;;;;;;5012870;28;20174;-80
2022/01/18 11:24:20;;;;;;;6.50;2.63;;;;;;;;;;5013562;28;20181;-80
2022/01/18 11:26:46;;;;;;;6.97;3.30;;;;;;;;;;5011621;28;20225;-80
2022/01/18 11:29:12;;;;;;;7.27;3.40;;;;;;;;;;5014141;28;20196;-80
2022/01/18 11:31:38;;;;;;;9.07;3.17;;;;;;;;;;5012179;28;20210;-80
2022/01/18 11:34:05;;;;;;;5.43;3.30;;;;;;;;;;5013670;28;20201;-80
2022/01/18 11:36:39;;;;;;;5.87;3.93;;;;;;;;;;5012319;28;20178;-80
2022/01/18 11:39:05;;;;;;;6.30;3.97;;;;;;;;;;5010345;28;20167;-80
2022/01/18 11:41:32;;;;;;;8.20;4.40;;;;;;;;;;5011681;28;20185;-81
2022/01/18 11:43:59;;;;;;;7.60;3.90;;;;;;;;;;5012842;28;20183;-80
2022/01/18 11:46:28;;;;;;;7.30;4.17;;;;;;;;;;5013262;28;20190;-81
2022/01/18 11:49:01;;;;;;;7.23;3.57;;;;;;;;;;5006721;28;20194;-80
2022/01/18 11:51:39;;;;;;;8.10;4.43;;;;;;;;;;5013019;28;20191;-80
2022/01/18 11:54:27;;;;;;;10.27;3.80;;;;;;;;;;5017327;28;20178;-80
2022/01/18 11:56:52;;;;;;;6.33;3.33;;;;;;;;;;5007210;28;20264;-80
2022/01/18 11:59:21;;;;;;;7.67;3.97;;;;;;;;;;5027554;28;20221;-80
2022/01/18 12:01:49;;;;;;;8.63;4.00;;;;;;;;;;5012740;28;20182;-79
2022/01/18 12:07:10;;;;;;;8.40;4.43;;;;;;;;;;5019065;28;20228;-80
2022/01/18 12:09:35;;;;;;;6.40;3.70;;;;;;;;;;5032299;28;20179;-81
2022/01/18 12:12:00;;;;;;;8.48;5.10;;;;;;;;;;5032015;28;20277;-80
2022/01/18 12:14:31;;;;;;;10.97;4.77;;;;;;;;;;5048893;28;20177;-80
2022/01/18 12:16:56;;;;;;;7.23;4.60;;;;;;;;;;5047522;28;20217;-80
2022/01/18 12:19:40;;;;;;;7.43;3.37;;;;;;;;;;5050482;28;20248;-80
2022/01/18 12:22:05;;;;;;;6.27;3.13;;;;;;;;;;5032098;28;20178;-80
2022/01/18 12:24:31;;;;;;;7.97;4.63;;;;;;;;;;5034796;28;20224;-80
2022/01/18 12:27:02;;;;;;;9.37;4.47;;;;;;;;;;5035019;28;20232;-79
2022/01/18 12:32:29;;;;;;;12.00;4.97;;;;;;;;;;5053092;28;20271;-80
2022/01/18 12:35:00;;;;;;;6.40;4.10;;;;;;;;;;5030219;28;20258;-80
2022/01/18 12:37:27;;;;;;;12.70;5.47;;;;;;;;;;5033849;28;20195;-80
2022/01/18 12:44:20;;;;;;;10.67;5.37;;;;;;;;;;5051245;28;20271;-80
2022/01/18 12:45:12;;;;;;;7.53;4.70;;;;;;;;;;5049714;28;20197;-79
2022/01/18 12:47:48;;;;;;;7.53;4.43;;;;;;;;;;5031477;28;20177;-79
2022/01/18 12:50:15;;;;;;;7.83;4.00;;;;;;;;;;5034380;28;20193;-80
2022/01/18 12:52:55;;;;;;;9.30;4.63;;;;;;;;;;5033682;28;20276;-80
2022/01/18 12:55:32;;;;;;;7.43;4.90;;;;;;;;;;5033837;28;20174;-80
2022/01/18 12:57:57;;;;;;;9.97;5.40;;;;;;;;;;5052205;28;20184;-80
2022/01/18 13:00:22;;;;;;;11.00;6.95;;;;;;;;;;5032556;28;20177;-80
2022/01/18 13:02:48;;;;;;;10.10;5.17;;;;;;;;;;5033731;28;20224;-80
2022/01/18 13:05:13;;;;;;;7.03;4.57;;;;;;;;;;5034716;28;20246;-80
2022/01/18 13:07:51;;;;;;;9.33;4.50;;;;;;;;;;5021610;28;20225;-80
2022/01/18 13:10:17;;;;;;;10.10;5.00;;;;;;;;;;5009176;28;20327;-80
2022/01/18 13:12:43;;;;;;;9.37;5.23;;;;;;;;;;5021216;28;20200;-80
2022/01/18 13:15:09;;;;;;;7.90;4.83;;;;;;;;;;5010186;28;20167;-80
2022/01/18 13:23:52;;;;;;;7.20;4.40;;;;;;;;;;5020854;28;20190;-80
2022/01/18 13:26:32;;;;;;;8.13;3.97;;;;;;;;;;5020046;28;20190;-80
2022/01/18 13:29:22;;;;;;;5.83;4.13;;;;;;;;;;5018907;28;20183;-80
2022/01/18 13:32:09;;;;;;;7.43;4.17;;;;;;;;;;5006986;28;20210;-80
2022/01/18 13:34:36;;;;;;;5.00;4.23;;;;;;;;;;5026436;28;20212;-80
2022/01/18 13:37:06;;;;;;;11.67;5.17;;;;;;;;;;5013630;28;20179;-81
2022/01/18 13:39:33;;;;;;;9.87;5.43;;;;;;;;;;5006260;28;20222;-80
2022/01/18 13:42:00;;;;;;;7.17;5.13;;;;;;;;;;5006949;28;20171;-80
2022/01/18 13:44:26;;;;;;;8.33;5.13;;;;;;;;;;5016282;28;20175;-81
2022/01/18 13:46:51;;;;;;;10.37;5.63;;;;;;;;;;5012645;28;20183;-80
2022/01/18 13:49:21;;;;;;;10.53;6.23;;;;;;;;;;5027426;28;20200;-78
2022/01/18 13:51:59;;;;;;;8.13;4.90;;;;;;;;;;5017111;28;20190;-81
2022/01/18 13:54:28;;;;;;;7.30;4.10;;;;;;;;;;5012080;28;20174;-82
2022/01/18 13:56:53;;;;;;;9.30;4.67;;;;;;;;;;5028698;28;20174;-80
2022/01/18 13:59:24;;;;;;;7.20;3.90;;;;;;;;;;5015852;28;20166;-80
2022/01/18 14:01:49;;;;;;;8.00;5.10;;;;;;;;;;5014520;28;20174;-80
2022/01/18 14:04:19;;;;;;;8.97;4.10;;;;;;;;;;5011678;28;20186;-80
2022/01/18 14:06:45;;;;;;;7.83;4.13;;;;;;;;;;5013428;28;20227;-80
2022/01/18 14:09:11;;;;;;;14.20;5.47;;;;;;;;;;5011868;28;20236;-80
2022/01/18 14:11:37;;;;;;;9.73;4.63;;;;;;;;;;5014765;28;20289;-80
2022/01/18 14:14:22;;;;;;;21.53;10.33;;;;;;;;;;5030074;28;20294;-81
2022/01/18 14:16:52;;;;;;;12.10;6.23;;;;;;;;;;5013482;28;20182;-80
2022/01/18 14:19:30;;;;;;;10.23;6.40;;;;;;;;;;5010328;28;20175;-80
2022/01/18 14:21:56;;;;;;;11.10;6.60;;;;;;;;;;5023047;28;20189;-81
2022/01/18 14:24:23;;;;;;;10.00;5.17;;;;;;;;;;5013704;28;20185;-80
2022/01/18 14:26:48;;;;;;;6.63;4.97;;;;;;;;;;5007681;28;20188;-81
2022/01/18 14:29:14;;;;;;;9.20;5.45;;;;;;;;;;5012749;28;20175;-80
2022/01/18 14:31:40;;;;;;;10.23;5.80;;;;;;;;;;5012847;28;20264;-80
2022/01/18 14:34:05;;;;;;;10.23;4.50;;;;;;;;;;5024183;28;20194;-80
2022/01/18 14:36:30;;;;;;;11.23;5.70;;;;;;;;;;5005552;28;20178;-81
2022/01/18 14:39:08;;;;;;;10.27;5.20;;;;;;;;;;5138232;23;20239;-80
2022/01/18 14:41:34;;;;;;;12.27;4.57;;;;;;;;;;4993098;28;20210;-80
2022/01/18 14:44:08;;;;;;;6.20;4.57;;;;;;;;;;4987040;28;20226;-79
2022/01/18 14:46:55;;;;;;;9.13;5.63;;;;;;;;;;4992552;28;20179;-79
2022/01/18 14:49:21;;;;;;;6.00;4.30;;;;;;;;;;4990385;28;20281;-80
2022/01/18 14:51:46;;;;;;;6.23;4.47;;;;;;;;;;5010585;28;20493;-80
2022/01/18 14:54:11;;;;;;;9.50;4.40;;;;;;;;;;5011209;28;20179;-79
2022/01/18 14:56:36;;;;;;;6.10;4.53;;;;;;;;;;4995231;28;20182;-80
2022/01/18 14:59:01;;;;;;;6.30;4.50;;;;;;;;;;4993169;28;20262;-79
2022/01/18 15:01:27;;;;;;;6.23;4.17;;;;;;;;;;4993909;28;20183;-80
2022/01/18 15:03:52;;;;;;;6.27;4.53;;;;;;;;;;4993433;28;20213;-80
2022/01/18 15:06:17;;;;;;;6.73;3.40;;;;;;;;;;4996958;28;20193;-80
2022/01/18 15:08:42;;;;;;;10.83;4.90;;;;;;;;;;4992930;28;20175;-79
2022/01/18 15:11:07;;;;;;;4.20;3.57;;;;;;;;;;5009399;28;20283;-80
2022/01/18 15:13:33;;;;;;;10.50;5.20;;;;;;;;;;4995435;28;20262;-80
2022/01/18 15:15:58;;;;;;;9.57;4.90;;;;;;;;;;4990336;28;20275;-80
2022/01/18 15:18:25;;;;;;;8.23;4.30;;;;;;;;;;4993828;28;20179;-80
2022/01/18 15:20:50;;;;;;;5.63;3.90;;;;;;;;;;4994462;28;20226;-80
2022/01/18 15:23:15;;;;;;;9.43;5.57;;;;;;;;;;4992568;28;20212;-80
2022/01/18 15:25:40;;;;;;;7.13;3.90;;;;;;;;;;4994754;28;20183;-80
2022/01/18 15:28:05;;;;;;;7.27;5.10;;;;;;;;;;4989694;28;20180;-80
2022/01/18 15:30:32;;;;;;;5.93;4.37;;;;;;;;;;4991789;28;20448;-80
2022/01/18 15:32:58;;;;;;;5.00;3.63;;;;;;;;;;5010488;28;20298;-80
2022/01/18 15:35:24;;;;;;;5.27;3.50;;;;;;;;;;4994957;28;20246;-81
2022/01/18 15:37:49;;;;;;;5.93;3.87;;;;;;;;;;4980276;28;20223;-80
2022/01/18 15:40:14;;;;;;;6.87;3.77;;;;;;;;;;4989549;28;20180;-80
2022/01/18 15:42:40;;;;;;;5.03;4.13;;;;;;;;;;4985308;28;20180;-80
2022/01/18 15:45:06;;;;;;;7.13;4.27;;;;;;;;;;4998147;28;20183;-80
2022/01/18 15:47:32;;;;;;;5.73;3.50;;;;;;;;;;4996111;28;20332;-80